Terminal Aerodrome Forecast
Issued by NWS

Home | Current Version | Previous Version | Text Only | Print | Product List | Glossary On
Versions: 1 2 3 4 5 6 7 8 9 10 11 12 13 14 15
654
FTUS43 KOAX 212341
TAFCDR
TAF
KCDR 212341Z 2200/2224 33013G22KT P6SM VCSH SCT070 BKN100
     FM220200 31011KT P6SM SCT070
     FM220400 27007KT P6SM SKC
     FM221700 32013G23KT P6SM VCSH BKN050
     FM221900 32016KT 5SM -SHRA BKN025 OVC040=

USA.gov is the U.S. government's official web portal to all federal, state and local government web resources and services.